Time;durP1;ratioP1;P1;durP2;ratioP2;P2;SDS_P1;SDS_P2;PMS_P1;PMS_P2;Temp;Humidity;BMP_temperature;BMP_pressure;BME280_temperature;BME280_humidity;BME280_pressure;Samples;Min_cycle;Max_cycle;Signal;HPM_P1;HPM_P2
2021/03/17 00:00:00;;;;;;;1.23;0.30;;;11.60;17.60;;;;;;4996177;28;20141;-60
2021/03/17 00:02:26;;;;;;;0.63;0.40;;;11.60;17.50;;;;;;5003421;28;20484;-61
2021/03/17 00:04:52;;;;;;;0.50;0.40;;;11.60;17.50;;;;;;5004997;28;20045;-60
2021/03/17 00:07:17;;;;;;;0.63;0.37;;;11.60;17.60;;;;;;4999121;28;20558;-60
2021/03/17 00:09:43;;;;;;;0.67;0.27;;;11.50;17.50;;;;;;5001498;28;20045;-61
2021/03/17 00:12:09;;;;;;;0.30;0.17;;;11.50;17.70;;;;;;5000035;28;20072;-61
2021/03/17 00:14:35;;;;;;;1.60;0.30;;;11.60;17.60;;;;;;5014892;28;20026;-60
2021/03/17 00:17:04;;;;;;;4.27;0.40;;;11.60;17.60;;;;;;5006086;28;20030;-61
2021/03/17 00:19:30;;;;;;;1.60;0.50;;;11.60;17.50;;;;;;4996655;28;20496;-61
2021/03/17 00:21:56;;;;;;;0.30;0.30;;;11.60;17.70;;;;;;4998663;28;20045;-61
2021/03/17 00:24:21;;;;;;;0.13;0.10;;;11.50;17.60;;;;;;4993258;28;20065;-60
2021/03/17 00:26:47;;;;;;;0.67;0.23;;;11.60;17.90;;;;;;5000485;28;20077;-60
2021/03/17 00:29:19;;;;;;;0.40;0.30;;;11.60;18.00;;;;;;5000004;28;20033;-61
2021/03/17 00:31:44;;;;;;;0.60;0.20;;;11.60;17.90;;;;;;4985583;28;20054;-60
2021/03/17 00:34:10;;;;;;;0.70;0.30;;;11.50;18.10;;;;;;5002986;28;20038;-61
2021/03/17 00:36:35;;;;;;;0.77;0.20;;;11.60;18.60;;;;;;5024122;28;20060;-61
2021/03/17 00:39:01;;;;;;;0.60;0.27;;;11.50;18.20;;;;;;4998770;28;20041;-60
2021/03/17 00:41:27;;;;;;;0.80;0.20;;;11.50;18.50;;;;;;5001633;28;20042;-61
2021/03/17 00:44:11;;;;;;;1.27;0.10;;;11.40;17.70;;;;;;5003184;28;20102;-60
2021/03/17 00:46:36;;;;;;;1.17;0.30;;;11.40;17.90;;;;;;4996865;28;20049;-60
2021/03/17 00:49:02;;;;;;;0.63;0.20;;;11.40;17.80;;;;;;4998659;28;20130;-60
2021/03/17 00:51:28;;;;;;;1.50;0.30;;;11.40;18.30;;;;;;5001097;28;20050;-60
2021/03/17 00:53:53;;;;;;;0.90;0.20;;;11.40;18.60;;;;;;5000430;28;20167;-60
2021/03/17 00:56:19;;;;;;;0.93;0.30;;;11.40;19.20;;;;;;5002403;28;20034;-60
2021/03/17 00:59:00;;;;;;;1.30;0.30;;;11.40;19.00;;;;;;5002585;28;20038;-60
2021/03/17 01:01:25;;;;;;;1.47;0.27;;;11.40;19.50;;;;;;4976185;28;20092;-60
2021/03/17 01:03:51;;;;;;;0.97;0.40;;;11.30;19.30;;;;;;4996416;28;20029;-59
2021/03/17 01:06:17;;;;;;;0.97;0.30;;;11.30;19.20;;;;;;4998399;28;20039;-59
2021/03/17 01:08:42;;;;;;;1.43;0.30;;;11.30;19.10;;;;;;4993868;28;20492;-61
2021/03/17 01:11:08;;;;;;;0.93;0.40;;;11.20;19.20;;;;;;5000695;28;20061;-61
2021/03/17 01:13:34;;;;;;;1.50;0.40;;;11.10;19.40;;;;;;5000450;28;20033;-61
2021/03/17 01:16:00;;;;;;;2.10;0.40;;;11.10;19.50;;;;;;4998917;28;20096;-60
2021/03/17 01:18:26;;;;;;;1.37;0.20;;;11.10;20.40;;;;;;4989347;28;20411;-61
2021/03/17 01:20:52;;;;;;;0.50;0.30;;;11.00;19.80;;;;;;4998379;28;20039;-60
2021/03/17 01:23:17;;;;;;;1.77;0.50;;;11.00;19.90;;;;;;4999559;28;20149;-59
2021/03/17 01:25:45;;;;;;;1.37;0.30;;;11.00;20.30;;;;;;4997476;28;20030;-61
2021/03/17 01:28:11;;;;;;;1.03;0.40;;;11.00;20.10;;;;;;5004147;28;20042;-60
2021/03/17 01:30:46;;;;;;;1.90;0.27;;;10.90;19.80;;;;;;4995107;28;20440;-61
2021/03/17 01:33:14;;;;;;;0.53;0.20;;;10.80;20.40;;;;;;5016106;28;20033;-61
2021/03/17 01:35:41;;;;;;;0.40;0.30;;;10.80;20.20;;;;;;5005667;28;20041;-60
2021/03/17 01:38:07;;;;;;;4.10;0.50;;;10.80;21.00;;;;;;4998113;28;20401;-60
2021/03/17 01:40:34;;;;;;;3.60;0.50;;;10.70;20.00;;;;;;4999455;28;20046;-60
2021/03/17 01:43:55;;;;;;;1.67;0.40;;;10.70;20.60;;;;;;5002936;28;20120;-60
2021/03/17 01:46:21;;;;;;;1.30;0.20;;;10.80;20.80;;;;;;4951283;28;20068;-59
2021/03/17 01:48:47;;;;;;;3.10;0.40;;;10.70;21.10;;;;;;4994231;28;20042;-58
2021/03/17 01:51:12;;;;;;;1.60;0.50;;;10.70;20.80;;;;;;4995386;28;20056;-60
2021/03/17 01:53:39;;;;;;;0.53;0.43;;;10.70;20.60;;;;;;4991857;28;20488;-61
2021/03/17 01:56:05;;;;;;;1.00;0.60;;;10.60;20.60;;;;;;4999896;28;20551;-61
2021/03/17 01:58:33;;;;;;;0.30;0.17;;;10.60;20.50;;;;;;5003381;28;20034;-61
2021/03/17 02:00:59;;;;;;;0.70;0.60;;;10.50;20.70;;;;;;4992685;28;20038;-61
2021/03/17 02:03:26;;;;;;;1.13;0.20;;;10.50;20.50;;;;;;4999565;28;20038;-61
2021/03/17 02:05:52;;;;;;;1.27;0.30;;;10.50;20.70;;;;;;4995139;28;20599;-60
2021/03/17 02:08:23;;;;;;;2.60;0.30;;;10.50;20.80;;;;;;5028895;28;20088;-60
2021/03/17 02:10:50;;;;;;;1.03;0.80;;;10.50;20.90;;;;;;4993365;28;20034;-60
2021/03/17 02:13:34;;;;;;;1.37;0.50;;;10.50;21.00;;;;;;5001422;28;20111;-61
2021/03/17 02:16:24;;;;;;;0.47;0.47;;;10.60;21.70;;;;;;4970574;28;20547;-61
2021/03/17 02:19:05;;;;;;;0.53;0.50;;;10.50;21.30;;;;;;4989047;28;20034;-60
2021/03/17 02:21:50;;;;;;;0.50;0.43;;;10.40;21.60;;;;;;4995230;28;20088;-60
2021/03/17 02:24:25;;;;;;;;;;;10.50;21.10;;;;;;4995634;28;20089;-60
2021/03/17 02:26:53;;;;;;;0.70;0.22;;;10.40;21.10;;;;;;4991930;28;20009;-60
2021/03/17 02:29:31;;;;;;;0.30;0.30;;;10.30;21.40;;;;;;4995164;28;20112;-60
2021/03/17 02:32:15;;;;;;;0.70;0.50;;;10.40;21.50;;;;;;4995375;28;20040;-60
2021/03/17 02:34:44;;;;;;;0.93;0.40;;;10.30;21.20;;;;;;5000396;28;20555;-60
2021/03/17 02:37:23;;;;;;;1.90;0.43;;;10.40;21.60;;;;;;4994455;28;20041;-59
2021/03/17 02:40:02;;;;;;;0.50;0.33;;;10.40;21.70;;;;;;4996111;28;20096;-59
2021/03/17 02:42:31;;;;;;;2.30;0.30;;;10.40;21.80;;;;;;4989251;28;20121;-60
2021/03/17 02:45:08;;;;;;;1.23;0.70;;;10.40;21.30;;;;;;4991958;28;20739;-60
2021/03/17 02:47:38;;;;;;;1.60;0.50;;;10.40;21.70;;;;;;4989943;28;20492;-61
2021/03/17 02:50:05;;;;;;;1.07;0.43;;;10.40;21.70;;;;;;5001437;28;20045;-60
2021/03/17 02:52:35;;;;;;;0.87;0.43;;;10.40;21.70;;;;;;4989497;28;21015;-60
2021/03/17 02:55:02;;;;;;;0.60;0.20;;;10.40;21.70;;;;;;4993904;28;20042;-60
2021/03/17 02:57:33;;;;;;;1.00;0.37;;;10.40;21.90;;;;;;4993672;28;20035;-60
2021/03/17 03:00:00;;;;;;;0.50;0.30;;;10.40;21.40;;;;;;4996087;28;20472;-60
2021/03/17 03:02:27;;;;;;;1.43;0.50;;;10.30;21.40;;;;;;4996812;28;20083;-60
2021/03/17 03:04:54;;;;;;;0.80;0.40;;;10.40;21.70;;;;;;4996226;28;20045;-58
2021/03/17 03:07:23;;;;;;;0.90;0.30;;;10.30;21.90;;;;;;4994005;28;20073;-60
2021/03/17 03:09:52;;;;;;;0.50;0.20;;;10.30;21.70;;;;;;4999520;28;20065;-59
2021/03/17 03:12:19;;;;;;;3.73;0.43;;;10.30;21.80;;;;;;4991968;28;20038;-59
2021/03/17 03:14:45;;;;;;;2.00;0.40;;;10.30;22.20;;;;;;4993472;28;20043;-60
2021/03/17 03:17:12;;;;;;;1.03;0.40;;;10.40;22.00;;;;;;4992258;28;20450;-60
2021/03/17 03:23:09;;;;;;;0.57;0.40;;;10.40;21.60;;;;;;4932235;28;20056;-60
2021/03/17 03:25:35;;;;;;;0.97;0.60;;;10.30;21.70;;;;;;4997881;28;20121;-60
2021/03/17 03:28:11;;;;;;;0.30;0.20;;;10.30;21.40;;;;;;5001380;28;20169;-60
2021/03/17 03:30:41;;;;;;;0.93;0.40;;;10.40;21.90;;;;;;5005996;28;20570;-60
2021/03/17 03:33:07;;;;;;;0.93;0.30;;;10.30;21.50;;;;;;5017717;28;20049;-60
2021/03/17 03:35:33;;;;;;;2.10;0.27;;;10.30;21.50;;;;;;5005477;28;20035;-60
2021/03/17 03:37:59;;;;;;;0.60;0.43;;;10.30;21.80;;;;;;4994915;28;20034;-60
2021/03/17 03:47:08;;;;;;;0.63;0.53;;;10.30;21.40;;;;;;4952842;28;20195;-59
2021/03/17 03:49:34;;;;;;;0.83;0.60;;;10.10;21.40;;;;;;4998188;28;20081;-60
2021/03/17 03:52:08;;;;;;;1.23;0.40;;;10.20;21.70;;;;;;5002587;28;20498;-60
2021/03/17 03:54:42;;;;;;;1.55;0.32;;;10.10;21.80;;;;;;5001935;28;20046;-60
2021/03/17 03:57:32;;;;;;;1.60;0.50;;;10.10;22.10;;;;;;5001421;28;20041;-60
2021/03/17 04:00:07;;;;;;;0.77;0.10;;;9.90;22.00;;;;;;4960110;28;20495;-60
2021/03/17 04:02:46;;;;;;;1.17;0.40;;;9.90;22.40;;;;;;4999294;28;20065;-60
2021/03/17 04:05:17;;;;;;;0.40;0.37;;;10.00;22.20;;;;;;4996141;28;20041;-61
2021/03/17 04:07:47;;;;;;;0.30;0.30;;;9.90;22.40;;;;;;4998218;28;20407;-60
2021/03/17 04:10:13;;;;;;;2.67;0.57;;;9.80;22.50;;;;;;4995955;28;20447;-60
2021/03/17 04:12:41;;;;;;;2.70;0.40;;;9.90;22.40;;;;;;4995485;28;20566;-60
2021/03/17 04:15:09;;;;;;;0.93;0.47;;;9.80;22.80;;;;;;4994668;28;20038;-60
2021/03/17 04:17:51;;;;;;;1.13;0.37;;;9.80;23.00;;;;;;4998803;28;20042;-61
2021/03/17 04:20:23;;;;;;;0.77;0.40;;;9.90;23.00;;;;;;4999346;28;20530;-61
2021/03/17 04:22:49;;;;;;;0.57;0.40;;;9.80;22.90;;;;;;5001405;28;20064;-59
2021/03/17 04:29:52;;;;;;;0.63;0.40;;;9.80;22.70;;;;;;4950233;28;20057;-59
2021/03/17 04:32:25;;;;;;;1.50;0.73;;;9.70;22.40;;;;;;4957716;28;20037;-60
2021/03/17 04:34:52;;;;;;;2.00;0.63;;;9.70;22.70;;;;;;5020790;28;20487;-61
2021/03/17 04:44:01;;;;;;;0.30;0.20;;;9.70;23.00;;;;;;4954466;28;20119;-60
2021/03/17 04:46:27;;;;;;;1.10;0.40;;;9.60;23.10;;;;;;5001800;28;20485;-60
2021/03/17 04:48:54;;;;;;;1.53;0.47;;;9.70;23.00;;;;;;4994236;28;20100;-60
2021/03/17 04:51:21;;;;;;;1.97;0.43;;;9.50;22.70;;;;;;5003756;28;20047;-59
2021/03/17 04:53:47;;;;;;;3.20;0.50;;;9.60;23.40;;;;;;5003877;28;20085;-60
2021/03/17 04:56:15;;;;;;;3.57;0.57;;;9.40;22.90;;;;;;4998533;28;20486;-61
2021/03/17 04:58:41;;;;;;;0.63;0.30;;;9.50;22.90;;;;;;5022435;28;20095;-61
2021/03/17 05:01:11;;;;;;;1.73;0.90;;;9.60;23.00;;;;;;4997964;28;20044;-60
2021/03/17 05:03:37;;;;;;;1.30;0.63;;;9.50;23.10;;;;;;4998322;28;20483;-62
2021/03/17 05:06:05;;;;;;;0.97;0.47;;;9.50;23.00;;;;;;4994713;28;20041;-60
2021/03/17 05:08:31;;;;;;;2.07;0.50;;;9.50;23.40;;;;;;5002961;28;20446;-59
2021/03/17 05:10:58;;;;;;;1.80;0.57;;;9.50;23.20;;;;;;4997552;28;20042;-59
2021/03/17 05:13:25;;;;;;;1.53;0.73;;;9.40;23.40;;;;;;5005402;28;20468;-58
2021/03/17 05:15:52;;;;;;;2.57;0.40;;;9.40;23.40;;;;;;5001300;28;20042;-60
2021/03/17 05:18:19;;;;;;;1.33;0.73;;;9.40;24.00;;;;;;4994478;28;20034;-60
2021/03/17 05:20:48;;;;;;;1.23;0.77;;;9.30;24.00;;;;;;4997094;28;20030;-59
2021/03/17 05:23:17;;;;;;;1.10;0.40;;;9.20;23.60;;;;;;5003992;28;20033;-60
2021/03/17 05:25:43;;;;;;;1.33;0.60;;;9.30;23.90;;;;;;5018290;28;20034;-61
2021/03/17 05:28:08;;;;;;;2.83;0.60;;;9.20;24.00;;;;;;5016859;28;20037;-60
2021/03/17 05:30:37;;;;;;;2.17;0.50;;;9.20;23.60;;;;;;5015159;28;20048;-60
2021/03/17 05:33:06;;;;;;;2.63;1.30;;;9.30;23.90;;;;;;5019965;28;20037;-60
2021/03/17 05:35:31;;;;;;;4.20;0.80;;;9.30;24.10;;;;;;5016427;28;20077;-60
2021/03/17 05:37:57;;;;;;;2.10;0.80;;;9.20;24.20;;;;;;5010314;28;20494;-61
2021/03/17 05:40:23;;;;;;;1.43;0.80;;;9.20;24.20;;;;;;5014314;28;20116;-61
2021/03/17 05:42:52;;;;;;;4.50;0.97;;;9.20;24.00;;;;;;5019891;28;20565;-60
2021/03/17 05:45:21;;;;;;;2.77;0.70;;;9.20;24.10;;;;;;5028013;28;20045;-61
2021/03/17 05:47:50;;;;;;;2.30;0.83;;;9.20;24.20;;;;;;5031845;28;20036;-61
2021/03/17 05:50:18;;;;;;;1.57;0.80;;;9.20;24.20;;;;;;5018051;28;20030;-61
2021/03/17 05:52:44;;;;;;;2.37;1.17;;;9.20;24.30;;;;;;4994718;28;21520;-62
2021/03/17 05:55:11;;;;;;;0.90;0.70;;;9.20;24.40;;;;;;4995641;28;20165;-60
2021/03/17 05:57:38;;;;;;;2.47;1.00;;;9.20;24.30;;;;;;4999376;28;20120;-60
2021/03/17 06:00:16;;;;;;;1.57;0.80;;;9.30;24.10;;;;;;4998472;28;20498;-60
2021/03/17 06:02:42;;;;;;;3.30;1.17;;;9.30;23.90;;;;;;4996921;28;20037;-61
2021/03/17 06:05:10;;;;;;;6.43;1.47;;;9.30;24.40;;;;;;4997353;28;20038;-60
2021/03/17 06:07:38;;;;;;;3.73;0.93;;;9.30;24.40;;;;;;4996867;28;20721;-60
2021/03/17 06:10:05;;;;;;;2.20;1.00;;;9.30;24.50;;;;;;4989532;28;20037;-60
2021/03/17 06:12:35;;;;;;;2.40;1.00;;;9.30;24.10;;;;;;5021986;28;20096;-60
2021/03/17 06:15:02;;;;;;;2.23;1.10;;;9.50;24.30;;;;;;4988676;28;20506;-61
2021/03/17 06:17:30;;;;;;;3.17;0.83;;;9.40;24.30;;;;;;4990934;28;20038;-60
2021/03/17 06:20:00;;;;;;;3.07;1.30;;;9.50;24.50;;;;;;4989360;28;20038;-60
2021/03/17 06:22:26;;;;;;;4.97;1.17;;;9.50;24.10;;;;;;4992491;28;20507;-61
2021/03/17 06:24:53;;;;;;;9.30;1.83;;;9.60;24.70;;;;;;4987140;28;20077;-61
2021/03/17 06:27:20;;;;;;;6.23;1.50;;;9.50;24.70;;;;;;4993541;28;20041;-61
2021/03/17 06:29:47;;;;;;;4.20;1.93;;;9.50;24.50;;;;;;5025480;28;20373;-61
2021/03/17 06:32:14;;;;;;;4.07;1.80;;;9.50;24.60;;;;;;4995982;28;20050;-61
2021/03/17 06:35:16;;;;;;;4.30;1.47;;;9.50;24.30;;;;;;4993036;28;20186;-61
2021/03/17 06:37:42;;;;;;;3.20;1.17;;;9.60;24.60;;;;;;4978745;28;20088;-61
2021/03/17 06:40:24;;;;;;;3.50;1.13;;;9.60;24.50;;;;;;4994033;28;20098;-61
2021/03/17 06:42:51;;;;;;;7.30;1.63;;;9.60;25.10;;;;;;5032173;28;20030;-60
2021/03/17 06:45:31;;;;;;;4.80;1.50;;;9.60;24.50;;;;;;5000059;28;20042;-61
2021/03/17 06:48:16;;;;;;;5.00;1.20;;;9.60;25.50;;;;;;4981339;28;20042;-61
2021/03/17 06:50:41;;;;;;;1.83;1.02;;;9.70;24.80;;;;;;4995244;28;20049;-61
2021/03/17 06:53:07;;;;;;;4.50;1.10;;;9.70;24.40;;;;;;5003031;28;20519;-61
2021/03/17 06:55:33;;;;;;;4.43;1.60;;;9.90;24.20;;;;;;5000060;28;20188;-60
2021/03/17 06:58:42;;;;;;;6.40;1.57;;;10.00;24.90;;;;;;5002486;28;20113;-60
2021/03/17 07:01:41;;;;;;;4.30;1.40;;;10.10;25.00;;;;;;4962369;28;20113;-60
2021/03/17 07:04:09;;;;;;;3.37;1.63;;;10.20;24.50;;;;;;4979584;28;20069;-60
2021/03/17 07:06:39;;;;;;;6.47;1.77;;;10.30;23.90;;;;;;5002659;28;20041;-61
2021/03/17 07:09:25;;;;;;;3.80;1.37;;;10.40;23.80;;;;;;4998376;28;20503;-60
2021/03/17 07:12:04;;;;;;;4.13;1.77;;;10.50;23.90;;;;;;5000229;28;20128;-60
2021/03/17 07:14:35;;;;;;;6.87;1.83;;;10.60;23.90;;;;;;5000263;28;20038;-60
2021/03/17 07:17:01;;;;;;;4.47;1.63;;;10.70;23.60;;;;;;5022375;28;20039;-60
2021/03/17 07:19:34;;;;;;;5.30;2.00;;;10.80;23.70;;;;;;5009057;28;20105;-60
2021/03/17 07:22:12;;;;;;;9.50;2.07;;;11.00;23.40;;;;;;5007053;28;20046;-60
2021/03/17 07:24:55;;;;;;;7.23;2.10;;;11.00;24.00;;;;;;5002481;28;20043;-61
2021/03/17 07:27:29;;;;;;;4.60;1.50;;;11.20;25.00;;;;;;4992362;28;20061;-59
2021/03/17 07:30:04;;;;;;;7.65;1.75;;;11.20;23.50;;;;;;5001123;28;20084;-61
2021/03/17 07:33:00;;;;;;;5.38;1.40;;;11.20;23.50;;;;;;5003075;28;20049;-61
2021/03/17 07:35:28;;;;;;;7.47;1.63;;;11.20;23.60;;;;;;5011315;28;20030;-60
2021/03/17 07:38:14;;;;;;;4.33;1.70;;;11.10;23.20;;;;;;4995635;28;20551;-59
2021/03/17 07:40:43;;;;;;;4.40;1.10;;;11.00;22.20;;;;;;5002037;28;21738;-61
2021/03/17 07:43:10;;;;;;;3.10;1.17;;;11.00;22.60;;;;;;4995887;28;20042;-60
2021/03/17 07:45:36;;;;;;;3.83;1.53;;;11.00;22.20;;;;;;5007576;28;20401;-60
2021/03/17 07:48:09;;;;;;;11.27;1.70;;;11.00;22.90;;;;;;5005706;28;20041;-60
2021/03/17 07:50:37;;;;;;;6.93;1.47;;;10.90;22.60;;;;;;5001874;28;20038;-61
2021/03/17 07:53:06;;;;;;;3.73;1.43;;;11.00;23.50;;;;;;5001703;28;20508;-61
2021/03/17 07:55:33;;;;;;;4.60;1.30;;;11.00;22.90;;;;;;5000853;28;20038;-61
2021/03/17 07:58:01;;;;;;;3.30;0.90;;;11.00;22.70;;;;;;5035917;28;20038;-61
2021/03/17 08:00:27;;;;;;;5.70;1.00;;;11.00;21.90;;;;;;5004098;28;20041;-61
2021/03/17 08:02:56;;;;;;;4.23;1.10;;;11.00;22.30;;;;;;4988496;28;20491;-61
2021/03/17 08:05:22;;;;;;;3.13;0.77;;;11.10;22.50;;;;;;4995697;28;20553;-60
2021/03/17 08:07:49;;;;;;;3.13;0.90;;;11.00;21.70;;;;;;4992402;28;20129;-61
2021/03/17 08:10:15;;;;;;;4.53;1.03;;;11.10;21.50;;;;;;4993993;28;20048;-61
2021/03/17 08:12:45;;;;;;;1.30;0.77;;;11.10;21.60;;;;;;4996269;28;20049;-61
2021/03/17 08:15:15;;;;;;;2.63;1.10;;;11.20;21.40;;;;;;5027727;28;20050;-61
2021/03/17 08:17:43;;;;;;;4.07;1.07;;;11.20;21.20;;;;;;4996523;28;20049;-62
2021/03/17 08:20:15;;;;;;;3.47;1.00;;;11.20;21.10;;;;;;4994455;28;20038;-61
2021/03/17 08:22:41;;;;;;;5.43;1.20;;;11.20;21.30;;;;;;4993650;28;20091;-62
2021/03/17 08:25:37;;;;;;;2.73;1.03;;;11.20;21.30;;;;;;4992111;28;20046;-62
2021/03/17 08:28:23;;;;;;;3.53;1.00;;;11.30;19.90;;;;;;4988721;28;20408;-62
2021/03/17 08:30:53;;;;;;;4.50;1.00;;;11.30;20.50;;;;;;4991133;28;20030;-62
2021/03/17 08:33:39;;;;;;;3.43;0.97;;;11.30;20.50;;;;;;5014516;28;20060;-62
2021/03/17 08:36:06;;;;;;;3.80;0.80;;;11.30;19.50;;;;;;4986843;28;20156;-60
2021/03/17 08:38:55;;;;;;;3.30;1.40;;;11.30;21.00;;;;;;5011696;28;20046;-61
2021/03/17 08:41:43;;;;;;;2.83;0.87;;;11.30;19.90;;;;;;4993261;28;20076;-60
2021/03/17 08:44:17;;;;;;;1.43;0.60;;;11.40;20.30;;;;;;4993299;28;20121;-62
2021/03/17 08:46:43;;;;;;;2.50;1.30;;;11.40;19.70;;;;;;4989219;28;20046;-61
2021/03/17 08:49:12;;;;;;;1.70;0.70;;;11.40;18.70;;;;;;4991333;28;20046;-61
2021/03/17 08:51:47;;;;;;;2.80;0.80;;;11.50;18.90;;;;;;4991696;28;20125;-61
2021/03/17 08:54:33;;;;;;;5.22;0.57;;;11.50;19.60;;;;;;4993694;28;20042;-61
2021/03/17 08:57:10;;;;;;;3.70;1.37;;;11.50;18.50;;;;;;4968154;28;20038;-61
2021/03/17 08:59:38;;;;;;;2.40;1.33;;;11.60;18.80;;;;;;4988661;28;20415;-62
2021/03/17 09:02:04;;;;;;;3.53;1.27;;;11.60;18.40;;;;;;5008013;28;20038;-61
2021/03/17 09:04:50;;;;;;;3.63;1.07;;;11.60;18.80;;;;;;4993033;28;20058;-61
2021/03/17 09:07:17;;;;;;;8.80;1.93;;;11.70;18.10;;;;;;5001598;28;20113;-61
2021/03/17 09:09:54;;;;;;;5.23;1.23;;;11.70;18.90;;;;;;5002207;28;20038;-61
2021/03/17 09:12:39;;;;;;;3.37;0.90;;;11.70;16.20;;;;;;4998933;28;20108;-61
2021/03/17 09:15:17;;;;;;;4.93;1.40;;;11.80;18.00;;;;;;4987529;28;20057;-61
2021/03/17 09:17:49;;;;;;;1.73;1.00;;;11.80;17.10;;;;;;4987094;28;20555;-61
2021/03/17 09:20:23;;;;;;;2.17;1.00;;;11.90;18.00;;;;;;5002136;28;20030;-62
2021/03/17 09:23:03;;;;;;;2.30;0.93;;;12.00;17.30;;;;;;4996522;28;20056;-60
2021/03/17 09:25:49;;;;;;;2.60;0.80;;;12.00;17.60;;;;;;4983577;28;20376;-62
2021/03/17 09:28:18;;;;;;;3.70;0.90;;;12.00;17.30;;;;;;5016555;28;20034;-61
2021/03/17 09:30:48;;;;;;;3.27;0.83;;;12.10;18.20;;;;;;5013609;28;20080;-62
2021/03/17 09:33:19;;;;;;;2.13;0.87;;;12.10;16.80;;;;;;4993704;28;20034;-62
2021/03/17 09:35:52;;;;;;;1.10;1.00;;;12.20;17.00;;;;;;5022762;28;20125;-61
2021/03/17 09:38:20;;;;;;;4.80;1.00;;;12.20;16.30;;;;;;5019535;28;20462;-61
2021/03/17 09:41:16;;;;;;;3.37;0.83;;;12.30;16.90;;;;;;4943197;28;20125;-61
2021/03/17 09:43:47;;;;;;;1.30;0.67;;;12.30;16.30;;;;;;4962704;28;20563;-61
2021/03/17 09:46:29;;;;;;;3.70;0.80;;;12.30;16.00;;;;;;4967621;28;20103;-61
2021/03/17 09:49:04;;;;;;;2.70;0.70;;;12.40;16.60;;;;;;4962024;28;20101;-62
2021/03/17 09:51:36;;;;;;;1.80;0.70;;;12.50;16.40;;;;;;4967060;28;20063;-62
2021/03/17 09:54:04;;;;;;;4.03;0.60;;;12.50;16.30;;;;;;4961907;28;20129;-62
2021/03/17 09:56:48;;;;;;;1.73;0.90;;;12.70;16.30;;;;;;4964623;28;20122;-62
2021/03/17 09:59:26;;;;;;;0.90;0.67;;;12.70;16.00;;;;;;4962358;28;20385;-62
2021/03/17 10:02:01;;;;;;;5.03;1.60;;;12.70;16.50;;;;;;4948816;28;20070;-59
2021/03/17 10:04:32;;;;;;;4.10;1.60;;;12.70;18.20;;;;;;4953210;28;20058;-62
2021/03/17 10:07:01;;;;;;;2.50;1.60;;;12.80;19.50;;;;;;4944697;28;20035;-60
2021/03/17 10:09:32;;;;;;;4.23;1.73;;;12.70;19.50;;;;;;4954595;28;20051;-60
2021/03/17 10:12:07;;;;;;;5.13;1.70;;;12.90;19.00;;;;;;4968151;28;20045;-61
2021/03/17 10:14:36;;;;;;;5.57;1.57;;;13.00;19.60;;;;;;4993499;28;20101;-61
2021/03/17 10:17:05;;;;;;;4.90;1.83;;;13.10;20.20;;;;;;4995979;28;20099;-61
2021/03/17 10:19:31;;;;;;;3.90;1.50;;;13.20;19.80;;;;;;4988352;28;20050;-61
2021/03/17 10:21:57;;;;;;;3.93;1.50;;;13.30;20.30;;;;;;4992858;28;20130;-61
2021/03/17 10:24:38;;;;;;;6.20;1.97;;;13.30;19.90;;;;;;4993677;28;20045;-61
2021/03/17 10:27:06;;;;;;;6.00;2.03;;;13.30;20.20;;;;;;4988591;28;20069;-61
2021/03/17 10:29:32;;;;;;;6.90;1.80;;;13.40;21.00;;;;;;4991149;28;20031;-61
2021/03/17 10:32:00;;;;;;;5.00;1.97;;;13.40;20.60;;;;;;4996610;28;20042;-61
2021/03/17 10:34:41;;;;;;;3.90;1.50;;;13.50;20.30;;;;;;4991487;28;20415;-61
2021/03/17 10:37:14;;;;;;;7.33;2.37;;;13.60;20.20;;;;;;4999238;28;20121;-61
2021/03/17 10:39:41;;;;;;;6.03;2.30;;;13.60;20.10;;;;;;4996784;28;20030;-61
2021/03/17 10:42:27;;;;;;;4.30;2.33;;;13.60;20.30;;;;;;4997060;28;20033;-61
2021/03/17 10:45:19;;;;;;;7.57;1.87;;;13.80;19.80;;;;;;4991035;28;20045;-60
2021/03/17 10:47:46;;;;;;;4.00;1.97;;;13.70;19.40;;;;;;5000742;28;20045;-61
2021/03/17 10:50:34;;;;;;;5.30;1.60;;;13.80;19.90;;;;;;5018513;28;20451;-61
2021/03/17 10:53:00;;;;;;;2.63;1.90;;;13.90;20.00;;;;;;4988577;28;20042;-61
2021/03/17 10:55:29;;;;;;;1.63;1.40;;;13.80;19.50;;;;;;5017111;28;20125;-61
2021/03/17 10:58:19;;;;;;;4.05;1.95;;;13.80;19.80;;;;;;5010930;28;20061;-63
2021/03/17 11:00:47;;;;;;;5.25;1.60;;;14.00;19.10;;;;;;5012688;28;20045;-62
2021/03/17 11:03:30;;;;;;;7.05;2.30;;;13.90;19.00;;;;;;5010244;28;20088;-61
2021/03/17 11:06:21;;;;;;;6.00;1.73;;;14.00;19.20;;;;;;4983675;28;20034;-61
2021/03/17 11:09:02;;;;;;;2.63;1.92;;;14.10;19.60;;;;;;5011493;28;20038;-62
2021/03/17 11:11:28;;;;;;;6.50;1.85;;;14.30;18.70;;;;;;4984631;28;20418;-61
2021/03/17 11:13:53;;;;;;;4.03;1.38;;;14.30;18.70;;;;;;5015197;28;20088;-61
2021/03/17 11:16:29;;;;;;;4.72;1.50;;;14.20;18.80;;;;;;5012307;28;20476;-62
2021/03/17 11:19:00;;;;;;;1.85;1.50;;;14.50;18.10;;;;;;4992211;28;20439;-60
2021/03/17 11:21:34;;;;;;;4.60;1.30;;;14.50;18.20;;;;;;5006672;28;20479;-61
2021/03/17 11:24:01;;;;;;;2.88;1.10;;;14.60;18.20;;;;;;4995577;28;20053;-62
2021/03/17 11:26:29;;;;;;;4.47;1.08;;;14.80;18.10;;;;;;5002614;28;20582;-63
2021/03/17 11:28:56;;;;;;;2.42;0.90;;;14.90;18.10;;;;;;5015159;28;20487;-61
2021/03/17 11:31:31;;;;;;;1.50;0.73;;;14.80;17.90;;;;;;4996930;28;20556;-61
2021/03/17 11:33:57;;;;;;;2.53;1.50;;;14.60;17.40;;;;;;5012073;28;20135;-71
2021/03/17 11:36:25;;;;;;;2.83;0.90;;;14.60;17.60;;;;;;5009641;28;20053;-60
2021/03/17 11:38:50;;;;;;;5.40;1.30;;;14.90;17.80;;;;;;4988642;28;20043;-62
2021/03/17 11:41:17;;;;;;;2.42;1.25;;;15.00;17.80;;;;;;5008464;28;20045;-63
2021/03/17 11:43:43;;;;;;;2.22;1.25;;;15.10;17.50;;;;;;5001131;28;20409;-63
2021/03/17 11:46:09;;;;;;;3.95;1.10;;;15.10;17.20;;;;;;5009244;28;20496;-62
2021/03/17 11:55:20;;;;;;;3.78;1.60;;;15.20;17.40;;;;;;4969721;28;20107;-63
2021/03/17 11:57:47;;;;;;;4.50;1.42;;;15.40;17.60;;;;;;4995849;28;20407;-63
2021/03/17 12:00:13;;;;;;;2.03;1.17;;;15.50;18.20;;;;;;5002439;28;20041;-63
2021/03/17 12:02:40;;;;;;;2.78;1.10;;;15.50;17.50;;;;;;4991792;28;20038;-62
2021/03/17 12:05:07;;;;;;;1.40;0.80;;;15.70;17.30;;;;;;4998163;28;20046;-62
2021/03/17 12:07:34;;;;;;;5.53;1.23;;;15.50;16.80;;;;;;4993662;28;20042;-61
2021/03/17 12:09:59;;;;;;;3.22;0.80;;;15.70;16.70;;;;;;4999250;28;20440;-62
2021/03/17 12:12:25;;;;;;;2.78;1.05;;;15.60;16.40;;;;;;4996960;28;20030;-62
2021/03/17 12:14:50;;;;;;;1.70;0.80;;;15.70;16.70;;;;;;4997174;28;20045;-62
2021/03/17 12:17:19;;;;;;;1.70;0.73;;;15.70;16.80;;;;;;5001318;28;20034;-62
2021/03/17 12:20:10;;;;;;;0.70;0.60;;;15.90;16.40;;;;;;4990145;28;20434;-62
2021/03/17 12:22:36;;;;;;;2.58;1.00;;;16.00;16.60;;;;;;4983415;28;20119;-62
2021/03/17 12:25:04;;;;;;;3.50;1.23;;;16.50;17.40;;;;;;4999469;28;20066;-62
2021/03/17 12:27:31;;;;;;;2.15;0.73;;;16.50;16.50;;;;;;4992144;28;20037;-62
2021/03/17 12:30:22;;;;;;;1.63;0.60;;;16.90;16.40;;;;;;4981799;28;20492;-62
2021/03/17 12:32:49;;;;;;;2.03;0.98;;;17.80;15.60;;;;;;5003955;28;20491;-62
2021/03/17 12:35:16;;;;;;;4.72;1.10;;;19.80;15.20;;;;;;4996605;28;20050;-62
2021/03/17 12:37:43;;;;;;;1.83;0.50;;;22.00;13.50;;;;;;4992443;28;20045;-62
2021/03/17 12:40:13;;;;;;;1.58;0.80;;;23.10;11.90;;;;;;4999966;28;20155;-62
2021/03/17 12:42:39;;;;;;;1.77;1.02;;;25.20;11.30;;;;;;4994803;28;20053;-62
2021/03/17 12:45:07;;;;;;;2.30;0.70;;;26.10;10.90;;;;;;5020239;28;20069;-62
2021/03/17 12:47:34;;;;;;;1.95;0.80;;;26.10;11.20;;;;;;5016838;28;20033;-61
2021/03/17 12:49:59;;;;;;;3.53;1.13;;;24.90;10.80;;;;;;4993955;28;20038;-61
2021/03/17 12:52:25;;;;;;;1.00;0.90;;;25.40;11.50;;;;;;4988774;28;20484;-61
2021/03/17 12:54:51;;;;;;;1.33;1.02;;;25.90;10.90;;;;;;4999058;28;20038;-61
2021/03/17 12:57:16;;;;;;;1.02;0.85;;;26.50;10.10;;;;;;5001676;28;20038;-61
2021/03/17 12:59:42;;;;;;;1.92;0.63;;;25.20;10.40;;;;;;5002167;28;20052;-61
2021/03/17 13:02:08;;;;;;;3.50;1.55;;;24.20;11.10;;;;;;4995065;28;20045;-61
2021/03/17 13:04:34;;;;;;;1.10;0.80;;;24.50;10.30;;;;;;4989191;28;20050;-62
2021/03/17 13:06:59;;;;;;;4.20;1.45;;;26.20;10.60;;;;;;4995661;28;20096;-61
2021/03/17 13:09:25;;;;;;;1.65;1.55;;;26.60;9.60;;;;;;4994243;28;20128;-61
2021/03/17 13:11:52;;;;;;;2.05;1.00;;;27.40;9.70;;;;;;4987061;28;20173;-62
2021/03/17 13:14:19;;;;;;;1.35;0.90;;;26.70;9.70;;;;;;4998367;28;20049;-61
2021/03/17 13:16:44;;;;;;;2.50;0.90;;;26.40;9.30;;;;;;4992414;28;20093;-62
2021/03/17 13:19:10;;;;;;;1.77;0.90;;;27.60;10.00;;;;;;5001238;28;20431;-61
2021/03/17 13:21:36;;;;;;;0.65;0.65;;;25.60;9.90;;;;;;4993152;28;20199;-62
2021/03/17 13:24:02;;;;;;;1.35;0.70;;;27.20;9.90;;;;;;4995383;28;20041;-62
2021/03/17 13:26:27;;;;;;;1.98;1.05;;;27.10;10.00;;;;;;4990039;28;20895;-62
2021/03/17 13:28:53;;;;;;;0.50;0.50;;;26.20;10.10;;;;;;4995260;28;20069;-62
2021/03/17 13:31:18;;;;;;;2.35;0.82;;;23.80;10.50;;;;;;4994582;28;20037;-62
2021/03/17 13:33:46;;;;;;;1.45;0.90;;;22.40;11.20;;;;;;5001245;28;20042;-62
2021/03/17 13:36:12;;;;;;;3.83;0.80;;;21.90;11.30;;;;;;4994578;28;20046;-62